Time;durP1;ratioP1;P1;durP2;ratioP2;P2;SDS_P1;SDS_P2;PMS_P1;PMS_P2;Temp;Humidity;BMP_temperature;BMP_pressure;BME280_temperature;BME280_humidity;BME280_pressure;Samples;Min_cycle;Max_cycle;Signal;HPM_P1;HPM_P2
2022/12/27 00:01:49;;;;;;;8.60;8.40;;;5.50;99.90;;;;;;5121779;28;20229;-86
2022/12/27 00:04:27;;;;;;;8.80;8.60;;;5.50;99.90;;;;;;5121844;28;20217;-87
2022/12/27 00:06:55;;;;;;;8.60;8.40;;;5.50;99.90;;;;;;5122090;28;20217;-86
2022/12/27 00:09:24;;;;;;;8.80;8.60;;;5.40;99.90;;;;;;5122501;28;20269;-86
2022/12/27 00:12:13;;;;;;;9.00;8.80;;;5.40;99.90;;;;;;5110967;28;20226;-88
2022/12/27 00:14:43;;;;;;;8.90;8.70;;;5.30;99.90;;;;;;5101778;28;21088;-88
2022/12/27 00:17:19;;;;;;;8.83;8.63;;;5.30;99.90;;;;;;5101048;28;20233;-88
2022/12/27 00:19:50;;;;;;;8.90;8.70;;;5.30;99.90;;;;;;5101374;28;20247;-87
2022/12/27 00:22:18;;;;;;;8.67;8.47;;;5.30;99.90;;;;;;5101305;28;20230;-88
2022/12/27 00:24:47;;;;;;;8.70;8.50;;;5.20;99.90;;;;;;5101016;28;20224;-87
2022/12/27 00:27:16;;;;;;;8.83;8.63;;;5.30;99.90;;;;;;5100812;28;20226;-88
2022/12/27 00:29:46;;;;;;;8.40;8.20;;;5.20;99.90;;;;;;5099837;28;20292;-87
2022/12/27 00:32:17;;;;;;;8.60;8.40;;;5.30;99.90;;;;;;5100190;28;20229;-88
2022/12/27 00:34:45;;;;;;;8.63;8.43;;;5.20;99.90;;;;;;5100379;28;20328;-88
2022/12/27 00:37:14;;;;;;;8.80;8.60;;;5.20;99.90;;;;;;5099748;28;20286;-87
2022/12/27 00:39:43;;;;;;;8.90;8.70;;;5.10;99.90;;;;;;5099951;28;20312;-88
2022/12/27 00:42:12;;;;;;;8.83;8.63;;;5.10;99.90;;;;;;5099395;28;20332;-88
2022/12/27 00:44:42;;;;;;;8.80;8.60;;;5.10;99.90;;;;;;5100191;28;20229;-88
2022/12/27 00:47:12;;;;;;;8.83;8.63;;;5.10;99.90;;;;;;5099484;28;20312;-88
2022/12/27 00:49:43;;;;;;;8.77;8.57;;;5.00;99.90;;;;;;5100064;28;20300;-88
2022/12/27 00:52:12;;;;;;;8.60;8.40;;;5.00;99.90;;;;;;5100543;28;20257;-88
2022/12/27 00:54:40;;;;;;;8.83;8.63;;;4.90;99.90;;;;;;5099347;28;20229;-89
2022/12/27 00:57:09;;;;;;;9.00;8.80;;;4.90;99.90;;;;;;5099433;28;20233;-88
2022/12/27 00:59:38;;;;;;;8.80;8.60;;;4.90;99.90;;;;;;5099718;28;20283;-88
2022/12/27 01:02:08;;;;;;;8.70;8.50;;;4.80;99.90;;;;;;5121513;28;20225;-87
2022/12/27 01:04:37;;;;;;;8.73;8.53;;;4.80;99.90;;;;;;5108499;28;20287;-88
2022/12/27 01:09:54;;;;;;;9.00;8.80;;;4.60;99.90;;;;;;5098710;28;20252;-88
2022/12/27 01:12:23;;;;;;;8.90;8.70;;;4.60;99.90;;;;;;5099238;28;20233;-88
2022/12/27 01:14:52;;;;;;;9.00;8.80;;;4.50;99.90;;;;;;5098964;28;20750;-87
2022/12/27 01:17:22;;;;;;;8.90;8.70;;;4.50;99.90;;;;;;5098682;28;20221;-88
2022/12/27 01:19:51;;;;;;;8.93;8.73;;;4.40;99.90;;;;;;5098945;28;20234;-88
2022/12/27 01:22:30;;;;;;;8.70;8.50;;;4.40;99.90;;;;;;5098696;28;20316;-88
2022/12/27 01:25:00;;;;;;;8.70;8.50;;;4.40;99.90;;;;;;5099517;28;20312;-88
2022/12/27 01:27:28;;;;;;;8.70;8.50;;;4.30;99.90;;;;;;5115052;28;20228;-86
2022/12/27 01:29:58;;;;;;;8.50;8.30;;;4.30;99.90;;;;;;5120922;28;20213;-86
2022/12/27 01:32:27;;;;;;;8.63;8.43;;;4.30;99.90;;;;;;5109784;28;20256;-88
2022/12/27 01:34:57;;;;;;;8.30;8.10;;;4.30;99.90;;;;;;5099838;28;20256;-87
2022/12/27 01:40:13;;;;;;;8.40;8.20;;;4.20;99.90;;;;;;5100681;28;20225;-88
2022/12/27 01:42:52;;;;;;;8.50;8.30;;;4.20;99.90;;;;;;5099914;28;20240;-88
2022/12/27 01:45:22;;;;;;;8.40;8.20;;;4.30;99.90;;;;;;5098491;28;20229;-88
2022/12/27 01:48:01;;;;;;;8.50;8.30;;;4.20;99.90;;;;;;5098748;28;20253;-88
2022/12/27 01:50:40;;;;;;;8.60;8.40;;;4.20;99.90;;;;;;5114704;28;20225;-87
2022/12/27 01:53:19;;;;;;;8.43;8.23;;;4.10;99.90;;;;;;5120577;28;20244;-87
2022/12/27 01:55:58;;;;;;;8.47;8.27;;;4.00;99.90;;;;;;5106606;28;20324;-88
2022/12/27 01:58:34;;;;;;;8.50;8.30;;;4.00;99.90;;;;;;5104134;28;20259;-87
2022/12/27 02:01:03;;;;;;;8.57;8.37;;;4.00;99.90;;;;;;5102656;28;20685;-88
2022/12/27 02:03:42;;;;;;;8.70;8.50;;;3.90;99.90;;;;;;5104114;28;20225;-88
2022/12/27 02:06:12;;;;;;;8.30;8.10;;;3.80;99.90;;;;;;5099931;28;20276;-88
2022/12/27 02:08:52;;;;;;;8.70;8.50;;;3.80;99.90;;;;;;5099746;28;20209;-88
2022/12/27 02:11:49;;;;;;;8.80;8.60;;;3.80;99.90;;;;;;5099804;28;20244;-88
2022/12/27 02:14:25;;;;;;;8.90;8.70;;;3.80;99.90;;;;;;5117928;28;20221;-86
2022/12/27 02:16:53;;;;;;;9.10;8.80;;;3.70;99.90;;;;;;5120007;28;20251;-87
2022/12/27 02:19:31;;;;;;;9.00;8.80;;;3.60;99.90;;;;;;5119875;28;20229;-86
2022/12/27 02:25:49;;;;;;;8.83;8.63;;;3.60;99.90;;;;;;5110443;28;20212;-88
2022/12/27 02:28:46;;;;;;;8.90;8.70;;;3.60;99.90;;;;;;5119685;28;20237;-88
2022/12/27 02:31:24;;;;;;;8.67;8.47;;;3.60;99.90;;;;;;5102693;28;20233;-88
2022/12/27 02:33:53;;;;;;;8.73;8.53;;;3.50;99.90;;;;;;5100250;28;20324;-89
2022/12/27 02:36:31;;;;;;;8.80;8.60;;;3.50;99.90;;;;;;5099799;28;20233;-88
2022/12/27 02:39:01;;;;;;;8.87;8.67;;;3.50;99.90;;;;;;5097935;28;20702;-88
2022/12/27 02:53:04;;;;;;;8.97;8.77;;;3.40;99.90;;;;;;5098018;28;20249;-88
2022/12/27 02:58:57;;;;;;;8.93;8.73;;;3.40;99.90;;;;;;5098609;28;20240;-88
2022/12/27 03:04:50;;;;;;;8.90;8.70;;;3.30;99.90;;;;;;5098222;28;20210;-88
2022/12/27 03:07:35;;;;;;;8.87;8.67;;;3.20;99.90;;;;;;5100791;28;20230;-88
2022/12/27 03:16:22;;;;;;;8.77;8.57;;;3.10;99.90;;;;;;5122774;28;20244;-88
2022/12/27 03:25:26;;;;;;;8.80;8.60;;;3.10;99.90;;;;;;5101841;28;20267;-88
2022/12/27 03:33:11;;;;;;;8.90;8.70;;;3.00;99.90;;;;;;5091760;28;20225;-88
2022/12/27 03:33:24;;;;;;;8.80;8.60;;;2.90;99.90;;;;;;5101552;28;20320;-88
2022/12/27 03:38:55;;;;;;;8.80;8.60;;;2.80;99.90;;;;;;5101101;28;20217;-88
2022/12/27 03:44:32;;;;;;;8.70;8.50;;;2.80;99.90;;;;;;5102542;28;20233;-88
2022/12/27 03:47:03;;;;;;;8.73;8.53;;;2.70;99.90;;;;;;5104008;28;20252;-88
2022/12/27 03:49:41;;;;;;;8.50;8.30;;;2.70;99.90;;;;;;5103239;28;20210;-88
2022/12/27 03:52:18;;;;;;;8.70;8.50;;;2.60;99.90;;;;;;5101967;28;20304;-88
2022/12/27 03:58:00;;;;;;;8.70;8.50;;;2.60;99.90;;;;;;5106335;28;20209;-88
2022/12/27 04:00:29;;;;;;;8.53;8.33;;;2.50;99.90;;;;;;5108331;28;20226;-88
2022/12/27 04:02:59;;;;;;;8.70;8.50;;;2.50;99.90;;;;;;5100682;28;20287;-88
2022/12/27 04:05:29;;;;;;;8.50;8.30;;;2.50;99.90;;;;;;5100761;28;20291;-89
2022/12/27 04:35:48;;;;;;;8.17;7.97;;;2.20;99.90;;;;;;5119021;28;20243;-88
2022/12/27 04:38:18;;;;;;;8.33;8.13;;;2.10;99.90;;;;;;5101786;28;20280;-89
2022/12/27 04:55:18;;;;;;;8.33;8.13;;;2.20;99.90;;;;;;5105100;28;20272;-84
2022/12/27 04:57:48;;;;;;;8.07;7.87;;;2.10;99.90;;;;;;5104846;28;20261;-84
2022/12/27 05:03:12;;;;;;;8.00;7.80;;;2.10;99.90;;;;;;5104273;28;20736;-85
2022/12/27 05:05:41;;;;;;;8.30;8.10;;;2.00;99.90;;;;;;5103596;28;20228;-84
2022/12/27 05:16:44;;;;;;;8.10;7.90;;;1.90;99.90;;;;;;5104035;28;20502;-84
2022/12/27 05:27:26;;;;;;;7.80;7.60;;;1.70;99.90;;;;;;5104065;28;20206;-85
2022/12/27 05:29:54;;;;;;;8.00;7.80;;;1.80;99.90;;;;;;5102705;28;20237;-85
2022/12/27 05:32:24;;;;;;;7.90;7.70;;;1.80;99.90;;;;;;5104526;28;20256;-85
2022/12/27 05:34:52;;;;;;;7.80;7.60;;;1.70;99.90;;;;;;5104095;28;20239;-85
2022/12/27 05:37:20;;;;;;;7.97;7.77;;;1.80;99.90;;;;;;5103892;28;20225;-85
2022/12/27 05:39:49;;;;;;;7.53;7.33;;;1.80;99.90;;;;;;5103636;28;20312;-85
2022/12/27 05:42:21;;;;;;;7.90;7.70;;;1.80;99.90;;;;;;5103593;28;20263;-84
2022/12/27 05:44:51;;;;;;;7.90;7.70;;;1.80;99.90;;;;;;5111945;28;20225;-84
2022/12/27 05:47:19;;;;;;;7.70;7.50;;;1.80;99.90;;;;;;5113872;28;20209;-85
2022/12/27 05:49:58;;;;;;;7.80;7.60;;;1.70;99.90;;;;;;5107607;28;20256;-85
2022/12/27 05:52:28;;;;;;;7.90;7.70;;;1.80;99.90;;;;;;5106821;28;20225;-85
2022/12/27 05:54:57;;;;;;;7.70;7.50;;;1.80;99.90;;;;;;5105200;28;20245;-85
2022/12/27 05:57:26;;;;;;;7.70;7.50;;;1.80;99.90;;;;;;5104708;28;20233;-85
2022/12/27 05:59:56;;;;;;;7.67;7.47;;;1.80;99.90;;;;;;5105063;28;20229;-85
2022/12/27 06:02:27;;;;;;;7.80;7.60;;;1.90;99.90;;;;;;5104303;28;20237;-85
2022/12/27 06:05:05;;;;;;;7.70;7.50;;;1.90;99.90;;;;;;5105656;28;20296;-85
2022/12/27 06:07:32;;;;;;;7.83;7.63;;;1.90;99.90;;;;;;5106350;28;20217;-84
2022/12/27 06:10:02;;;;;;;7.73;7.53;;;1.90;99.90;;;;;;5106434;28;20221;-85
2022/12/27 06:12:33;;;;;;;7.60;7.40;;;2.00;99.90;;;;;;5105687;28;20287;-84
2022/12/27 06:15:01;;;;;;;8.00;7.80;;;2.00;99.90;;;;;;5106219;28;20233;-84
2022/12/27 06:17:31;;;;;;;7.70;7.50;;;1.90;99.90;;;;;;5102879;28;20321;-85
2022/12/27 06:20:10;;;;;;;7.70;7.50;;;1.90;99.90;;;;;;5103538;28;20256;-85
2022/12/27 06:22:38;;;;;;;7.80;7.60;;;1.90;99.90;;;;;;5103768;28;20231;-84
2022/12/27 06:25:08;;;;;;;8.07;7.87;;;2.00;99.90;;;;;;5102626;28;20229;-84
2022/12/27 06:27:39;;;;;;;8.10;7.90;;;1.90;99.90;;;;;;5103076;28;20285;-85
2022/12/27 06:30:10;;;;;;;8.00;7.80;;;1.90;99.90;;;;;;5102686;28;20257;-84
2022/12/27 06:32:38;;;;;;;7.80;7.60;;;1.90;99.90;;;;;;5102200;28;20256;-84
2022/12/27 06:35:17;;;;;;;7.70;7.50;;;2.00;99.90;;;;;;5103893;28;20230;-85
2022/12/27 06:37:46;;;;;;;7.80;7.60;;;2.00;99.90;;;;;;5103483;28;20248;-84
2022/12/27 06:40:16;;;;;;;7.47;7.27;;;2.00;99.90;;;;;;5103545;28;20280;-84
2022/12/27 06:42:43;;;;;;;7.77;7.57;;;2.00;99.90;;;;;;5106627;28;20256;-84
2022/12/27 06:45:12;;;;;;;8.00;7.80;;;1.90;99.90;;;;;;5106415;28;20233;-84
2022/12/27 06:47:41;;;;;;;7.93;7.73;;;1.90;99.90;;;;;;5107273;28;20236;-84
2022/12/27 06:50:21;;;;;;;7.67;7.47;;;1.90;99.90;;;;;;5107760;28;20252;-84
2022/12/27 06:52:49;;;;;;;8.10;7.90;;;1.90;99.90;;;;;;5110899;28;20299;-85
2022/12/27 06:55:19;;;;;;;8.10;7.90;;;1.90;99.90;;;;;;5112471;28;20225;-85
2022/12/27 06:57:50;;;;;;;8.13;7.93;;;1.90;99.90;;;;;;5110425;28;20225;-85
2022/12/27 07:00:19;;;;;;;8.00;7.80;;;1.90;99.90;;;;;;5109258;28;20236;-85
2022/12/27 07:02:48;;;;;;;7.80;7.60;;;1.90;99.90;;;;;;5108380;28;20261;-85
2022/12/27 07:05:19;;;;;;;8.20;8.00;;;1.90;99.90;;;;;;5107568;28;20226;-85
2022/12/27 07:07:47;;;;;;;8.00;7.80;;;1.90;99.90;;;;;;5107244;28;20241;-85
2022/12/27 07:10:15;;;;;;;8.20;8.00;;;2.00;99.90;;;;;;5107322;28;20237;-85
2022/12/27 07:12:44;;;;;;;7.97;7.77;;;2.00;99.90;;;;;;5106949;28;20279;-85
2022/12/27 07:15:14;;;;;;;8.00;7.80;;;2.00;99.90;;;;;;5106039;28;20225;-85
2022/12/27 07:17:43;;;;;;;8.20;8.00;;;2.00;99.90;;;;;;5106305;28;20221;-85
2022/12/27 07:20:13;;;;;;;8.00;7.80;;;2.00;99.90;;;;;;5105674;28;20230;-85
2022/12/27 07:22:44;;;;;;;7.90;7.70;;;2.00;99.90;;;;;;5105916;28;20230;-85
2022/12/27 07:25:12;;;;;;;8.00;7.80;;;2.10;99.90;;;;;;5105623;28;20260;-85
2022/12/27 07:27:41;;;;;;;7.87;7.67;;;2.10;99.90;;;;;;5105907;28;20672;-85
2022/12/27 07:30:11;;;;;;;8.00;7.80;;;2.10;99.90;;;;;;5104781;28;20250;-85
2022/12/27 07:32:40;;;;;;;8.00;7.80;;;2.10;99.90;;;;;;5105231;28;20259;-85
2022/12/27 07:35:09;;;;;;;7.57;7.37;;;2.10;99.90;;;;;;5106038;28;20229;-85
2022/12/27 07:37:38;;;;;;;7.70;7.50;;;2.20;99.90;;;;;;5104595;28;20237;-85
2022/12/27 07:40:11;;;;;;;7.73;7.53;;;2.20;99.90;;;;;;5103972;28;20233;-85
2022/12/27 07:42:39;;;;;;;7.70;7.50;;;2.30;99.90;;;;;;5104498;28;20252;-85
2022/12/27 07:45:09;;;;;;;7.70;7.50;;;2.30;99.90;;;;;;5105043;28;20295;-85
2022/12/27 07:47:39;;;;;;;7.80;7.60;;;2.30;99.90;;;;;;5104495;28;20233;-85
2022/12/27 07:50:07;;;;;;;8.03;7.83;;;2.30;99.90;;;;;;5105709;28;20293;-85
2022/12/27 07:52:38;;;;;;;8.03;7.83;;;2.40;99.90;;;;;;5106955;28;20307;-85
2022/12/27 07:55:16;;;;;;;8.00;7.80;;;2.40;99.90;;;;;;5114883;28;20218;-84
2022/12/27 07:57:45;;;;;;;8.30;8.10;;;2.40;99.90;;;;;;5113861;28;20235;-85
2022/12/27 08:00:18;;;;;;;8.17;7.97;;;2.50;99.90;;;;;;5107554;28;20317;-85
2022/12/27 08:02:46;;;;;;;8.40;8.20;;;2.50;99.90;;;;;;5106635;28;20237;-85
2022/12/27 08:05:14;;;;;;;8.00;7.80;;;2.60;99.90;;;;;;5105210;28;20236;-85
2022/12/27 08:07:43;;;;;;;8.00;7.80;;;2.60;99.90;;;;;;5105228;28;20316;-85
2022/12/27 08:10:21;;;;;;;7.90;7.70;;;2.70;99.90;;;;;;5105236;28;20229;-84
2022/12/27 08:12:50;;;;;;;8.00;7.80;;;2.70;99.90;;;;;;5104374;28;20316;-85
2022/12/27 08:15:21;;;;;;;7.97;7.77;;;2.80;99.90;;;;;;5115750;28;20232;-85
2022/12/27 08:17:49;;;;;;;7.93;7.73;;;2.90;99.90;;;;;;5108492;28;20230;-85
2022/12/27 08:20:19;;;;;;;8.20;8.00;;;2.90;99.90;;;;;;5104923;28;20233;-85
2022/12/27 08:22:48;;;;;;;8.07;7.87;;;2.90;99.90;;;;;;5103915;28;20285;-85
2022/12/27 08:28:08;;;;;;;8.40;8.20;;;3.10;99.90;;;;;;5103197;28;20231;-85
2022/12/27 08:30:35;;;;;;;8.47;8.27;;;3.10;99.90;;;;;;5103135;28;20328;-85
2022/12/27 08:33:04;;;;;;;8.87;8.67;;;3.20;99.90;;;;;;5103545;28;20229;-85
2022/12/27 08:35:33;;;;;;;8.60;8.40;;;3.30;99.90;;;;;;5102987;28;20316;-85
2022/12/27 08:38:03;;;;;;;8.60;8.40;;;3.30;99.90;;;;;;5105464;28;20248;-85
2022/12/27 08:40:40;;;;;;;8.63;8.43;;;3.40;99.90;;;;;;5117902;28;20233;-85
2022/12/27 08:43:11;;;;;;;8.57;8.37;;;3.40;99.90;;;;;;5112142;28;20240;-85
2022/12/27 08:45:42;;;;;;;8.70;8.50;;;3.50;99.90;;;;;;5108927;28;20287;-85
2022/12/27 08:48:10;;;;;;;8.60;8.40;;;3.60;99.90;;;;;;5107259;28;20225;-86
2022/12/27 08:50:39;;;;;;;8.70;8.50;;;3.70;99.90;;;;;;5105661;28;20265;-85
2022/12/27 08:53:08;;;;;;;8.50;8.30;;;3.70;99.90;;;;;;5105404;28;20760;-85
2022/12/27 08:55:46;;;;;;;8.50;8.30;;;3.90;99.90;;;;;;5105100;28;20316;-85
2022/12/27 08:58:16;;;;;;;8.47;8.27;;;3.90;99.90;;;;;;5105024;28;20256;-85
2022/12/27 09:00:56;;;;;;;8.40;8.20;;;4.00;99.90;;;;;;5104916;28;20324;-85
2022/12/27 09:03:25;;;;;;;7.90;7.70;;;4.10;99.90;;;;;;5104730;28;20324;-86
2022/12/27 09:19:38;;;;;;;8.20;8.00;;;4.20;99.90;;;;;;5181534;27;1442913;-85
2022/12/27 09:22:11;;;;;;;8.17;7.97;;;4.70;99.90;;;;;;5204645;27;20225;-85
2022/12/27 09:24:39;;;;;;;7.83;7.63;;;4.80;99.90;;;;;;5220321;27;20206;-84
2022/12/27 09:27:19;;;;;;;8.30;8.10;;;4.90;99.90;;;;;;5220389;27;20222;-84
2022/12/27 09:29:46;;;;;;;8.40;8.20;;;5.00;99.90;;;;;;5220515;27;20210;-84
2022/12/27 09:32:15;;;;;;;8.30;8.10;;;5.00;99.90;;;;;;5220024;27;20226;-84
2022/12/27 09:34:53;;;;;;;8.20;8.00;;;5.10;99.90;;;;;;5220492;27;20226;-84
2022/12/27 09:37:22;;;;;;;8.20;8.00;;;5.20;99.90;;;;;;5220648;27;20198;-84
2022/12/27 09:39:52;;;;;;;8.30;8.10;;;5.30;99.90;;;;;;5218355;27;20317;-85
2022/12/27 09:42:40;;;;;;;8.47;8.27;;;5.40;99.90;;;;;;5217452;27;20234;-84
2022/12/27 09:45:19;;;;;;;8.60;8.40;;;5.50;99.90;;;;;;5220461;27;20249;-84
2022/12/27 09:47:58;;;;;;;8.43;8.23;;;5.70;99.90;;;;;;5220723;27;20218;-84
2022/12/27 09:50:36;;;;;;;8.50;8.30;;;5.80;99.90;;;;;;5219168;27;20226;-84
2022/12/27 09:53:16;;;;;;;8.60;8.40;;;6.00;99.90;;;;;;5220693;27;20214;-84
2022/12/27 09:55:54;;;;;;;8.63;8.43;;;6.20;99.90;;;;;;5220526;27;20215;-85
2022/12/27 09:58:50;;;;;;;9.07;8.77;;;6.40;99.90;;;;;;5220500;27;20217;-85
2022/12/27 10:01:26;;;;;;;8.97;8.73;;;6.60;99.90;;;;;;5220389;27;20214;-84
2022/12/27 10:03:55;;;;;;;9.20;8.90;;;6.70;99.90;;;;;;5220772;27;20236;-84
2022/12/27 10:06:54;;;;;;;9.30;9.00;;;6.70;99.90;;;;;;5219847;27;20222;-84
2022/12/27 10:09:49;;;;;;;9.17;8.87;;;6.80;99.90;;;;;;5219944;27;20232;-84
2022/12/27 10:12:45;;;;;;;9.33;9.03;;;6.90;99.90;;;;;;5220477;27;20256;-84
2022/12/27 10:15:24;;;;;;;9.50;9.20;;;7.10;99.90;;;;;;5220110;27;20214;-84
2022/12/27 10:18:10;;;;;;;9.33;9.03;;;7.20;99.90;;;;;;5219688;27;20226;-85
2022/12/27 10:20:58;;;;;;;9.30;9.00;;;7.20;99.90;;;;;;5205000;27;20244;-85
2022/12/27 10:23:33;;;;;;;9.37;9.07;;;7.50;99.90;;;;;;5205394;27;20223;-84
2022/12/27 10:26:12;;;;;;;9.30;9.00;;;7.70;99.90;;;;;;5205477;27;20217;-84
2022/12/27 10:28:43;;;;;;;9.30;9.00;;;8.00;99.90;;;;;;5205640;27;20236;-84
2022/12/27 10:31:21;;;;;;;9.30;9.00;;;8.00;99.90;;;;;;5203600;27;20222;-85
2022/12/27 10:33:50;;;;;;;9.20;8.90;;;8.10;99.90;;;;;;5193112;27;20226;-85
2022/12/27 10:36:27;;;;;;;9.13;8.83;;;8.10;99.90;;;;;;5192808;27;20257;-85
2022/12/27 10:39:05;;;;;;;9.40;9.10;;;8.00;99.90;;;;;;5199623;27;20226;-85
2022/12/27 10:41:49;;;;;;;9.30;9.00;;;8.10;99.90;;;;;;5191055;22;21152;-82
2022/12/27 10:44:16;;;;;;;9.03;8.73;;;8.10;99.90;;;;;;5127246;28;20235;-82
2022/12/27 10:46:50;;;;;;;9.33;9.03;;;8.00;99.90;;;;;;5128101;27;20259;-82
2022/12/27 10:49:26;;;;;;;9.37;9.07;;;7.90;99.90;;;;;;5128646;28;20229;-83
2022/12/27 10:51:57;;;;;;;9.20;8.90;;;7.80;99.90;;;;;;5116891;28;20244;-82
2022/12/27 10:54:28;;;;;;;9.20;8.90;;;7.70;99.90;;;;;;5106407;28;20293;-83
2022/12/27 10:56:58;;;;;;;9.40;9.10;;;7.80;99.90;;;;;;5105518;28;20261;-82
2022/12/27 10:59:29;;;;;;;9.50;9.20;;;7.70;99.90;;;;;;5106354;28;20737;-83
2022/12/27 11:02:18;;;;;;;9.60;9.30;;;7.70;99.90;;;;;;5105782;28;20220;-83
2022/12/27 11:04:59;;;;;;;9.47;9.17;;;7.80;99.90;;;;;;5106184;28;20324;-83
2022/12/27 11:07:31;;;;;;;9.40;9.10;;;8.00;99.90;;;;;;5109974;28;20229;-82
2022/12/27 11:10:16;;;;;;;9.63;9.33;;;8.10;99.90;;;;;;5109996;28;20229;-83
2022/12/27 11:13:01;;;;;;;9.50;9.20;;;8.10;99.90;;;;;;5110716;28;20241;-85
2022/12/27 11:15:32;;;;;;;9.47;9.17;;;8.20;99.90;;;;;;5108619;28;20283;-83
2022/12/27 11:18:04;;;;;;;9.50;9.20;;;8.30;99.90;;;;;;5106887;28;20244;-83
2022/12/27 11:20:38;;;;;;;9.40;9.10;;;8.30;99.90;;;;;;5104762;28;20241;-83
2022/12/27 11:23:13;;;;;;;9.77;9.47;;;8.30;99.90;;;;;;5104715;28;20233;-83
2022/12/27 11:25:53;;;;;;;9.80;9.50;;;8.30;99.90;;;;;;5104704;28;20279;-83
2022/12/27 11:28:31;;;;;;;10.07;9.77;;;8.20;99.90;;;;;;5114523;28;20329;-82
2022/12/27 11:31:02;;;;;;;9.70;9.40;;;8.30;99.90;;;;;;5111166;28;20237;-83
2022/12/27 11:33:36;;;;;;;9.50;9.20;;;8.40;99.90;;;;;;5106147;28;20257;-83
2022/12/27 11:36:05;;;;;;;9.30;9.00;;;8.60;99.90;;;;;;5105516;28;20222;-83
2022/12/27 11:38:36;;;;;;;9.40;9.10;;;8.80;99.90;;;;;;5120954;28;20229;-82
2022/12/27 11:41:11;;;;;;;9.30;9.00;;;8.90;99.90;;;;;;5105602;28;20249;-83
2022/12/27 11:43:45;;;;;;;9.80;9.50;;;9.00;99.90;;;;;;5103025;28;20335;-83
2022/12/27 11:46:27;;;;;;;10.00;9.70;;;9.00;99.90;;;;;;5106225;28;20236;-83
2022/12/27 11:48:58;;;;;;;9.80;9.50;;;9.10;99.90;;;;;;5107346;28;20275;-83
2022/12/27 11:52:02;;;;;;;9.70;9.40;;;9.20;99.90;;;;;;5101841;28;20230;-83
2022/12/27 11:55:01;;;;;;;9.63;9.33;;;9.20;99.90;;;;;;5105069;28;20225;-83
2022/12/27 11:57:55;;;;;;;9.97;9.67;;;9.20;99.90;;;;;;5106710;28;20293;-82
2022/12/27 12:00:26;;;;;;;9.93;9.63;;;9.30;99.90;;;;;;5103184;28;20259;-83
2022/12/27 12:03:43;;;;;;;9.43;9.13;;;9.40;99.90;;;;;;5103277;28;20222;-82
2022/12/27 12:06:18;;;;;;;9.57;9.27;;;9.40;99.90;;;;;;5108061;28;20205;-81
2022/12/27 12:09:33;;;;;;;9.37;9.07;;;9.40;99.90;;;;;;5109068;28;20286;-82
2022/12/27 12:13:03;;;;;;;9.77;9.47;;;9.20;99.90;;;;;;5104861;28;20320;-82
2022/12/27 12:15:55;;;;;;;9.60;9.30;;;9.10;99.90;;;;;;5090908;28;20220;-82
2022/12/27 12:18:44;;;;;;;9.70;9.40;;;8.80;99.90;;;;;;5105824;28;20240;-82
2022/12/27 12:21:31;;;;;;;9.60;9.30;;;8.70;99.90;;;;;;5106054;28;20324;-82
2022/12/27 12:24:43;;;;;;;9.40;9.10;;;8.80;99.90;;;;;;5104881;28;20256;-82
2022/12/27 12:27:50;;;;;;;9.40;9.10;;;8.90;99.90;;;;;;5099717;28;20304;-82
2022/12/27 12:30:43;;;;;;;9.60;9.30;;;8.90;99.90;;;;;;5095468;28;20238;-83
2022/12/27 12:33:56;;;;;;;9.37;9.07;;;8.80;99.90;;;;;;5104635;28;20230;-82
2022/12/27 12:36:55;;;;;;;9.27;8.97;;;8.70;99.90;;;;;;5105311;28;20229;-83
2022/12/27 12:39:39;;;;;;;9.37;9.07;;;8.80;99.90;;;;;;5105505;28;20260;-82
2022/12/27 12:42:21;;;;;;;9.33;9.03;;;9.00;99.90;;;;;;5104306;28;20249;-83
2022/12/27 12:45:47;;;;;;;9.17;8.87;;;9.10;99.90;;;;;;5107473;28;20252;-82
2022/12/27 12:48:47;;;;;;;9.23;8.93;;;9.10;99.90;;;;;;5107911;28;20328;-83
2022/12/27 12:51:34;;;;;;;9.30;9.00;;;9.20;99.90;;;;;;5114650;28;20226;-83
2022/12/27 12:54:18;;;;;;;9.17;8.87;;;9.10;99.90;;;;;;5117263;28;20221;-83
2022/12/27 12:57:12;;;;;;;9.30;9.00;;;9.00;99.90;;;;;;5115919;28;20229;-83
2022/12/27 13:00:16;;;;;;;9.67;9.37;;;8.90;99.90;;;;;;5116679;28;20214;-83
2022/12/27 13:03:42;;;;;;;9.27;8.97;;;8.80;99.90;;;;;;5117295;28;20245;-83
2022/12/27 13:06:48;;;;;;;9.50;9.20;;;8.80;99.90;;;;;;5086529;28;20225;-83
2022/12/27 13:09:29;;;;;;;8.93;8.73;;;8.90;99.90;;;;;;5076176;28;20249;-84
2022/12/27 13:12:03;;;;;;;9.30;9.00;;;8.90;99.90;;;;;;5107202;28;20334;-83
2022/12/27 13:15:01;;;;;;;9.17;8.87;;;8.90;99.90;;;;;;5106174;28;20239;-84
2022/12/27 13:17:42;;;;;;;8.77;8.57;;;8.80;99.90;;;;;;5112529;28;20263;-84
2022/12/27 13:20:40;;;;;;;9.00;8.77;;;8.80;99.90;;;;;;5109689;28;20289;-84
2022/12/27 13:23:32;;;;;;;8.80;8.60;;;8.80;99.90;;;;;;5104102;28;20255;-84
2022/12/27 13:26:13;;;;;;;8.80;8.60;;;8.70;99.90;;;;;;5102800;28;20267;-84
2022/12/27 13:29:02;;;;;;;8.80;8.60;;;8.80;99.90;;;;;;5103339;28;20237;-85
2022/12/27 13:31:42;;;;;;;8.80;8.60;;;8.70;99.90;;;;;;5112248;28;20258;-84
2022/12/27 13:34:29;;;;;;;8.80;8.60;;;8.60;99.90;;;;;;5117497;28;21012;-84
2022/12/27 13:37:15;;;;;;;8.97;8.73;;;8.60;99.90;;;;;;5117351;28;20252;-81
2022/12/27 13:40:05;;;;;;;9.20;8.90;;;8.80;99.90;;;;;;5104027;28;20229;-85
2022/12/27 13:43:07;;;;;;;8.80;8.60;;;9.00;99.90;;;;;;5101671;28;20237;-83
2022/12/27 13:45:58;;;;;;;8.40;8.20;;;9.20;99.90;;;;;;5102571;28;20233;-84
2022/12/27 13:48:52;;;;;;;8.80;8.60;;;9.40;99.90;;;;;;5103932;28;20268;-86
2022/12/27 13:51:42;;;;;;;8.60;8.40;;;9.30;99.90;;;;;;5103209;28;20339;-84
2022/12/27 13:54:50;;;;;;;8.40;8.20;;;9.30;99.90;;;;;;5103267;28;20230;-84
2022/12/27 13:57:48;;;;;;;8.67;8.47;;;9.40;99.90;;;;;;5105779;28;20245;-84
2022/12/27 14:00:18;;;;;;;8.80;8.60;;;9.50;99.90;;;;;;5107462;28;20337;-85
2022/12/27 14:03:59;;;;;;;8.83;8.63;;;9.20;99.90;;;;;;5108252;28;20237;-84
2022/12/27 14:07:03;;;;;;;9.37;9.07;;;9.20;99.90;;;;;;5071015;28;20312;-84
2022/12/27 14:10:03;;;;;;;9.50;9.20;;;9.20;99.90;;;;;;5106622;28;20226;-84
2022/12/27 14:12:54;;;;;;;9.70;9.40;;;9.10;99.90;;;;;;5105954;28;20265;-84
2022/12/27 14:15:28;;;;;;;8.90;8.70;;;9.00;99.90;;;;;;5105945;28;20324;-84
2022/12/27 14:18:22;;;;;;;9.30;9.00;;;8.90;99.90;;;;;;5108706;28;20229;-84
2022/12/27 14:21:06;;;;;;;8.83;8.63;;;8.80;99.90;;;;;;5107724;28;20240;-84
2022/12/27 14:24:09;;;;;;;8.90;8.70;;;8.80;99.90;;;;;;5102761;28;20337;-84
2022/12/27 14:27:33;;;;;;;8.83;8.63;;;8.70;99.90;;;;;;5092189;28;20257;-84
2022/12/27 14:30:31;;;;;;;9.40;9.10;;;8.50;99.90;;;;;;5102562;28;20229;-84
2022/12/27 14:33:38;;;;;;;9.30;9.00;;;8.30;99.90;;;;;;5102087;28;20252;-84
2022/12/27 14:36:58;;;;;;;9.20;8.90;;;8.30;99.90;;;;;;5103202;28;20252;-84
2022/12/27 14:40:17;;;;;;;9.23;8.93;;;8.20;99.90;;;;;;5093313;28;20239;-85
2022/12/27 14:43:33;;;;;;;9.07;8.77;;;8.10;99.90;;;;;;5104954;28;20324;-83
2022/12/27 14:46:47;;;;;;;9.33;9.03;;;7.80;99.90;;;;;;5106334;28;20283;-84
2022/12/27 14:50:16;;;;;;;9.20;8.90;;;7.50;99.90;;;;;;5104769;28;20225;-84
2022/12/27 14:53:40;;;;;;;8.57;8.37;;;7.30;99.90;;;;;;5090984;28;20229;-84
2022/12/27 14:56:20;;;;;;;8.77;8.57;;;7.30;99.90;;;;;;5076883;28;20268;-84
2022/12/27 14:59:05;;;;;;;8.90;8.70;;;7.20;99.90;;;;;;5103161;28;20236;-84
2022/12/27 15:01:52;;;;;;;8.90;8.70;;;7.10;99.90;;;;;;5102750;28;20328;-84
2022/12/27 15:05:29;;;;;;;9.03;8.77;;;7.10;99.90;;;;;;5104848;28;20283;-83
2022/12/27 15:08:19;;;;;;;9.10;8.80;;;7.00;99.90;;;;;;5041864;28;20229;-84
2022/12/27 15:11:05;;;;;;;9.20;8.90;;;7.00;99.90;;;;;;5103659;28;20253;-84
2022/12/27 15:13:51;;;;;;;9.30;9.00;;;6.90;99.90;;;;;;5104836;28;20245;-84
2022/12/27 15:16:28;;;;;;;8.97;8.67;;;6.90;99.90;;;;;;5102341;28;20248;-84
2022/12/27 15:19:24;;;;;;;9.10;8.80;;;6.80;99.90;;;;;;5102806;28;20328;-84
2022/12/27 15:22:02;;;;;;;8.67;8.47;;;6.80;99.90;;;;;;5104376;28;20332;-83
2022/12/27 15:24:43;;;;;;;8.70;8.50;;;6.70;99.90;;;;;;5104464;28;20667;-84
2022/12/27 15:27:23;;;;;;;8.60;8.40;;;6.60;99.90;;;;;;5102631;28;20221;-84
2022/12/27 15:30:20;;;;;;;8.60;8.40;;;6.50;99.90;;;;;;5103389;28;20225;-84
2022/12/27 15:32:59;;;;;;;8.40;8.20;;;6.50;99.90;;;;;;5100911;28;20233;-84
2022/12/27 15:35:49;;;;;;;8.40;8.20;;;6.40;99.90;;;;;;5104129;28;20221;-84
2022/12/27 15:38:19;;;;;;;8.60;8.40;;;6.30;99.90;;;;;;5105247;28;20283;-84
2022/12/27 15:41:25;;;;;;;8.50;8.30;;;6.20;99.90;;;;;;5105653;28;20324;-84
2022/12/27 15:44:17;;;;;;;8.60;8.40;;;6.20;99.90;;;;;;5091247;28;20323;-84
2022/12/27 15:47:40;;;;;;;8.50;8.30;;;6.10;99.90;;;;;;5101781;28;20268;-84
2022/12/27 15:50:50;;;;;;;8.70;8.50;;;6.10;99.90;;;;;;5089453;28;20236;-84
2022/12/27 15:53:52;;;;;;;8.30;8.10;;;6.10;99.90;;;;;;5101097;28;20282;-84
2022/12/27 15:56:44;;;;;;;8.20;8.00;;;6.00;99.90;;;;;;5101520;28;20229;-84
2022/12/27 15:59:46;;;;;;;8.30;8.10;;;6.00;99.90;;;;;;5102376;28;20237;-84
2022/12/27 16:02:28;;;;;;;8.40;8.20;;;6.00;99.90;;;;;;5107706;28;20225;-83
2022/12/27 16:05:07;;;;;;;8.40;8.20;;;5.90;99.90;;;;;;5120459;28;20248;-83
2022/12/27 16:07:45;;;;;;;8.50;8.30;;;5.70;99.90;;;;;;5113932;28;20229;-84
2022/12/27 16:10:48;;;;;;;8.63;8.43;;;5.60;99.90;;;;;;5107371;28;20709;-84
2022/12/27 16:13:45;;;;;;;8.30;8.10;;;5.30;99.90;;;;;;5101994;28;20247;-84